Diego Garcia, British Indian Ocean

8:26 PM IOT on February 19, 2017 (GMT +0600)
Diego Garcia Navy | | Change Station

Elev 7 ft 7.30 °S, 72.40 °E | Updated 31 minutes ago

Clear
Clear
85 °F
Feels Like 94 °F
N
10
Wind Variable Wind from SSE

Today
High -- | Low -- °F
--% Chance of Precip.
Yesterday
High -- | Low -- °F
Precip. -- in
Pressure 29.88 in
Visibility 6.2 miles
Clouds Few 2000 ft
Few 23000 ft
Heat Index 94 °F
Dew Point 76 °F
Humidity 74%
Rainfall 0.00 in
Snow Depth Not available.
7:14 AM 7:33 PM
Last Quarter, 43% visible
METAR FJDG 191355Z 15009KT 9999 FEW020 FEW230 30/25 A2989 RMK SLP119 T02950245
Pressure 29.88 in
Visibility 6.2 miles
Clouds Few 2000 ft
Few 23000 ft
Heat Index 94 °F
Dew Point 76 °F
Humidity 74%
Rainfall 0.00 in
Snow Depth Not available.
7:14 AM 7:33 PM
Last Quarter, 43% visible
METAR FJDG 191355Z 15009KT 9999 FEW020 FEW230 30/25 A2989 RMK SLP119 T02950245

Get Your Daily Forecast Email!

Thanks for signing up!

Be on the lookout for a verification email in your inbox.

You'll start receiving the daily forecast at 8 AM.

×

10-Day Weather Forecast

No radar image for this location.
×

Almanac

Astronomy

Feb. 19, 2017 Rise Set
Actual Time
Civil Twilight
Nautical Twilight
Astronomical Twilight
Moon
Length of Visible Light
Length of Day
Tomorrow will be .
, % of the Moon is Illuminated

Today's Extremes

Country Highs Country Lows

Community

WunderPhotos

Upload Photos

1,962,540 photos uploaded!

WunderBlog® & News

Nearby

Air Quality

  Air Quality AQ Index Pollutant
Not available.

Snow Depth

Station Depth Elevation

Earthquake Activity

City Distance Mag. Time & Date
Minimum magnitude displayed is 2.5.

Coastal Water Temperatures

Place Temperature

Stations

Nearby Weather Stations

Station Location Temp. Windchill Dew Point Humidity Wind Precip. Elev Updated Type